createdAt,value
2023-04-06T00:00:29.268Z,76.46
2023-04-06T00:01:00.984Z,76.55
2023-04-06T00:01:32.626Z,77.16
2023-04-06T00:02:04.369Z,77.60
2023-04-06T00:02:36.818Z,77.98
2023-04-06T00:03:08.674Z,78.27
2023-04-06T00:03:40.451Z,78.14
2023-04-06T00:04:12.364Z,78.11
2023-04-06T00:04:44.030Z,78.13
2023-04-06T00:05:15.960Z,78.23
2023-04-06T00:05:48.842Z,78.01
2023-04-06T00:06:21.172Z,78.03
2023-04-06T00:06:52.838Z,78.63
2023-04-06T00:07:24.559Z,79.15
2023-04-06T00:07:57.062Z,79.16
2023-04-06T00:08:29.573Z,78.81
2023-04-06T00:09:01.784Z,78.76
2023-04-06T00:09:33.429Z,78.27
2023-04-06T00:10:05.590Z,78.41
2023-04-06T00:10:37.454Z,78.58
2023-04-06T00:11:09.148Z,79.18
2023-04-06T00:11:41.008Z,79.50
2023-04-06T00:12:12.636Z,79.47
2023-04-06T00:12:44.302Z,78.82
2023-04-06T00:13:16.302Z,78.56
2023-04-06T00:13:47.973Z,78.87
2023-04-06T00:14:19.753Z,79.11
2023-04-06T00:14:51.557Z,79.00
2023-04-06T00:15:23.330Z,78.99
2023-04-06T00:15:54.996Z,78.74
2023-04-06T00:16:28.955Z,78.63
2023-04-06T00:17:02.596Z,78.57
2023-04-06T00:17:34.299Z,78.63
2023-04-06T00:18:06.231Z,78.26
2023-04-06T00:18:37.944Z,78.80
2023-04-06T00:19:09.796Z,78.31
2023-04-06T00:19:41.688Z,77.81
2023-04-06T00:20:13.365Z,78.26
2023-04-06T00:20:45.099Z,78.63
2023-04-06T00:21:16.984Z,78.93
2023-04-06T00:21:48.650Z,79.10
2023-04-06T00:22:20.430Z,79.87
2023-04-06T00:22:52.200Z,79.67
2023-04-06T00:23:23.950Z,78.94
2023-04-06T00:23:55.612Z,78.40
2023-04-06T00:24:27.266Z,77.89
2023-04-06T00:24:58.968Z,77.77
2023-04-06T00:25:30.677Z,77.75
2023-04-06T00:26:02.316Z,78.35
2023-04-06T00:26:34.042Z,78.71
2023-04-06T00:27:05.727Z,78.36
2023-04-06T00:27:37.747Z,78.44
2023-04-06T00:28:09.378Z,78.70
2023-04-06T00:28:41.157Z,78.91
2023-04-06T00:29:12.760Z,78.92
2023-04-06T00:29:45.507Z,78.48
2023-04-06T00:30:17.161Z,78.12
2023-04-06T00:30:49.168Z,77.70
2023-04-06T00:31:21.547Z,77.37
2023-04-06T00:31:53.228Z,77.14
2023-04-06T00:32:25.069Z,77.08
2023-04-06T00:32:56.800Z,77.30
2023-04-06T00:33:28.486Z,77.57
2023-04-06T00:34:00.176Z,77.63
2023-04-06T00:34:31.809Z,78.15
2023-04-06T00:35:04.830Z,77.32
2023-04-06T00:35:36.490Z,76.86
2023-04-06T00:36:08.478Z,77.38
2023-04-06T00:36:40.536Z,77.39
2023-04-06T00:37:13.059Z,77.76
2023-04-06T00:37:49.310Z,78.60
2023-04-06T00:38:21.009Z,79.01
2023-04-06T00:38:52.822Z,78.70
2023-04-06T00:39:24.498Z,78.82
2023-04-06T00:39:56.124Z,79.06
2023-04-06T00:40:29.664Z,78.55
2023-04-06T00:41:01.365Z,78.45
2023-04-06T00:41:33.252Z,78.35
2023-04-06T00:42:14.707Z,77.77
2023-04-06T00:42:46.420Z,77.60
2023-04-06T00:43:18.098Z,77.74
2023-04-06T00:43:49.723Z,77.87
2023-04-06T00:44:21.658Z,77.98
2023-04-06T00:44:58.423Z,78.14
2023-04-06T00:45:30.423Z,78.40
2023-04-06T00:46:02.242Z,78.44
2023-04-06T00:46:33.954Z,78.37
2023-04-06T00:47:05.735Z,78.85
2023-04-06T00:47:37.620Z,79.54
2023-04-06T00:48:10.236Z,79.68
2023-04-06T00:48:41.942Z,79.93
2023-04-06T00:49:13.612Z,80.43
2023-04-06T00:49:45.441Z,81.23
2023-04-06T00:50:18.198Z,81.40
2023-04-06T00:50:49.918Z,80.94
2023-04-06T00:51:21.636Z,80.72
2023-04-06T00:51:54.179Z,80.83
2023-04-06T00:52:26.314Z,80.82
2023-04-06T00:52:58.175Z,80.74
2023-04-06T00:53:29.797Z,80.63
2023-04-06T00:54:01.396Z,80.66
2023-04-06T00:54:33.067Z,80.40
2023-04-06T00:55:05.475Z,80.52
2023-04-06T00:55:37.235Z,80.61
2023-04-06T00:56:10.894Z,80.96
2023-04-06T00:56:43.907Z,80.84
2023-04-06T00:57:16.259Z,81.25
2023-04-06T00:57:48.509Z,81.37
2023-04-06T00:58:20.600Z,81.59
2023-04-06T00:58:52.477Z,81.28
2023-04-06T00:59:24.218Z,81.08
2023-04-06T00:59:56.288Z,80.73
2023-04-06T01:00:28.304Z,80.81
2023-04-06T01:01:00.261Z,80.77
2023-04-06T01:01:33.559Z,80.74
2023-04-06T01:02:05.471Z,80.73
2023-04-06T01:02:37.579Z,80.71
2023-04-06T01:03:09.478Z,81.07
2023-04-06T01:03:43.300Z,81.03
2023-04-06T01:04:15.110Z,80.45
2023-04-06T01:04:47.013Z,80.12
2023-04-06T01:05:18.766Z,79.85
2023-04-06T01:05:50.527Z,79.57
2023-04-06T01:06:22.652Z,79.69
2023-04-06T01:06:54.406Z,79.55
2023-04-06T01:07:26.105Z,79.79
2023-04-06T01:07:57.748Z,79.61
2023-04-06T01:08:29.991Z,79.80
2023-04-06T01:09:02.050Z,80.04
2023-04-06T01:09:34.208Z,79.83
2023-04-06T01:10:06.450Z,79.50
2023-04-06T01:10:38.071Z,81.06
2023-04-06T01:11:09.852Z,81.14
2023-04-06T01:11:41.484Z,80.72
2023-04-06T01:12:13.105Z,80.72
2023-04-06T01:12:44.762Z,81.11
2023-04-06T01:13:16.550Z,81.60
2023-04-06T01:13:48.435Z,81.95
2023-04-06T01:14:20.201Z,81.77
2023-04-06T01:14:52.069Z,81.79
2023-04-06T01:15:25.244Z,81.39
2023-04-06T01:15:57.062Z,80.82
2023-04-06T01:16:28.824Z,80.68
2023-04-06T01:17:01.714Z,80.69
2023-04-06T01:17:33.495Z,80.92
2023-04-06T01:18:07.668Z,81.03
2023-04-06T01:18:39.807Z,81.23
2023-04-06T01:19:14.773Z,81.17
2023-04-06T01:19:46.585Z,81.41
2023-04-06T01:20:18.360Z,81.73
2023-04-06T01:20:50.028Z,81.63
2023-04-06T01:21:21.762Z,81.37
2023-04-06T01:21:54.405Z,81.06
2023-04-06T01:22:26.313Z,80.72
2023-04-06T01:22:57.999Z,80.30
2023-04-06T01:23:29.882Z,80.04
2023-04-06T01:24:01.552Z,79.80
2023-04-06T01:24:33.827Z,79.58
2023-04-06T01:25:06.124Z,79.67
2023-04-06T01:25:37.889Z,79.76
2023-04-06T01:26:09.743Z,79.55
2023-04-06T01:26:41.370Z,79.44
2023-04-06T01:27:14.199Z,79.46
2023-04-06T01:27:46.018Z,79.62
2023-04-06T01:28:17.682Z,79.76
2023-04-06T01:28:49.461Z,79.91
2023-04-06T01:29:21.342Z,79.93
2023-04-06T01:29:53.028Z,80.06
2023-04-06T01:30:24.878Z,80.06
2023-04-06T01:30:56.504Z,80.00
2023-04-06T01:31:28.687Z,80.32
2023-04-06T01:32:00.540Z,80.42
2023-04-06T01:32:32.242Z,80.53
2023-04-06T01:33:04.317Z,80.47
2023-04-06T01:33:36.454Z,80.62
2023-04-06T01:34:08.179Z,80.54
2023-04-06T01:34:39.810Z,80.20
2023-04-06T01:35:11.868Z,80.23
2023-04-06T01:35:43.578Z,80.23
2023-04-06T01:36:16.170Z,80.17
2023-04-06T01:36:47.848Z,80.10
2023-04-06T01:37:19.525Z,80.37
2023-04-06T01:37:51.145Z,80.56
2023-04-06T01:38:22.873Z,80.77
2023-04-06T01:38:54.697Z,80.71
2023-04-06T01:39:27.123Z,80.46
2023-04-06T01:39:58.948Z,80.45
2023-04-06T01:40:30.625Z,80.28
2023-04-06T01:41:02.211Z,80.18
2023-04-06T01:41:33.926Z,80.06
2023-04-06T01:42:05.703Z,79.94
2023-04-06T01:42:37.443Z,79.96
2023-04-06T01:43:09.045Z,79.99
2023-04-06T01:43:41.055Z,79.93
2023-04-06T01:44:12.659Z,79.81
2023-04-06T01:44:44.474Z,80.13
2023-04-06T01:45:16.273Z,80.02
2023-04-06T01:45:48.036Z,79.84
2023-04-06T01:46:19.813Z,79.84
2023-04-06T01:46:51.743Z,80.03
2023-04-06T01:47:23.551Z,80.08
2023-04-06T01:47:55.269Z,80.00
2023-04-06T01:48:29.485Z,80.02
2023-04-06T01:49:01.497Z,79.82
2023-04-06T01:49:33.159Z,79.79
2023-04-06T01:50:07.241Z,80.03
2023-04-06T01:50:38.862Z,80.13
2023-04-06T01:51:10.562Z,80.11
2023-04-06T01:51:42.302Z,81.03
2023-04-06T01:52:14.015Z,80.70
2023-04-06T01:52:45.702Z,79.83
2023-04-06T01:53:17.528Z,80.13
2023-04-06T01:53:50.372Z,80.43
2023-04-06T01:54:22.200Z,80.78
2023-04-06T01:54:54.060Z,80.47
2023-04-06T01:55:25.895Z,80.54
2023-04-06T01:55:57.607Z,80.62
2023-04-06T01:56:29.324Z,80.04
2023-04-06T01:57:00.989Z,80.10
2023-04-06T01:57:32.610Z,79.81
2023-04-06T01:58:04.464Z,79.67
2023-04-06T01:58:36.490Z,79.81
2023-04-06T01:59:08.387Z,79.06
2023-04-06T01:59:40.341Z,79.25
2023-04-06T02:00:12.793Z,79.49
2023-04-06T02:00:44.487Z,79.70
2023-04-06T02:01:16.343Z,79.81
2023-04-06T02:01:48.101Z,79.87
2023-04-06T02:02:19.870Z,79.55
2023-04-06T02:02:51.730Z,79.47
2023-04-06T02:03:23.412Z,79.48
2023-04-06T02:03:55.477Z,80.46
2023-04-06T02:04:27.237Z,80.33
2023-04-06T02:04:58.853Z,80.50
2023-04-06T02:05:32.764Z,79.49
2023-04-06T02:06:05.063Z,78.98
2023-04-06T02:06:36.746Z,79.06
2023-04-06T02:07:08.429Z,79.70
2023-04-06T02:07:40.087Z,79.94
2023-04-06T02:08:11.693Z,79.45
2023-04-06T02:08:43.386Z,79.76
2023-04-06T02:09:15.760Z,80.17
2023-04-06T02:09:47.498Z,79.75
2023-04-06T02:10:19.262Z,78.92
2023-04-06T02:10:51.045Z,79.01
2023-04-06T02:11:22.706Z,79.32
2023-04-06T02:11:54.399Z,79.64
2023-04-06T02:12:26.084Z,80.20
2023-04-06T02:12:57.877Z,80.90
2023-04-06T02:13:29.566Z,80.68
2023-04-06T02:14:02.072Z,80.36
2023-04-06T02:14:33.928Z,80.38
2023-04-06T02:15:05.956Z,80.27
2023-04-06T02:15:37.592Z,80.09
2023-04-06T02:16:09.378Z,79.82
2023-04-06T02:16:41.134Z,79.89
2023-04-06T02:17:12.889Z,80.35
2023-04-06T02:17:44.681Z,80.39
2023-04-06T02:18:18.649Z,79.67
2023-04-06T02:18:51.986Z,79.74
2023-04-06T02:19:23.756Z,79.78
2023-04-06T02:19:55.409Z,80.09
2023-04-06T02:20:27.170Z,79.67
2023-04-06T02:20:58.783Z,79.22
2023-04-06T02:21:30.852Z,78.88
2023-04-06T02:22:02.791Z,78.78
2023-04-06T02:22:36.377Z,78.86
2023-04-06T02:23:08.229Z,78.88
2023-04-06T02:23:39.844Z,79.00
2023-04-06T02:24:11.565Z,79.04
2023-04-06T02:24:43.569Z,79.04
2023-04-06T02:25:15.324Z,79.21
2023-04-06T02:25:47.008Z,79.45
2023-04-06T02:26:18.627Z,79.89
2023-04-06T02:26:50.377Z,79.80
2023-04-06T02:27:22.008Z,79.64
2023-04-06T02:27:53.720Z,79.70
2023-04-06T02:28:25.482Z,79.31
2023-04-06T02:28:57.168Z,79.11
2023-04-06T02:29:28.793Z,79.47
2023-04-06T02:30:00.406Z,79.65
2023-04-06T02:30:33.730Z,79.94
2023-04-06T02:31:05.474Z,80.91
2023-04-06T02:31:37.206Z,80.03
2023-04-06T02:32:09.082Z,79.48
2023-04-06T02:32:40.826Z,79.51
2023-04-06T02:33:12.612Z,79.46
2023-04-06T02:33:44.342Z,79.49
2023-04-06T02:34:18.742Z,79.49
2023-04-06T02:34:50.653Z,79.28
2023-04-06T02:35:22.384Z,79.50
2023-04-06T02:35:54.085Z,80.01
2023-04-06T02:36:25.826Z,80.58
2023-04-06T02:36:57.577Z,80.70
2023-04-06T02:37:29.369Z,80.91
2023-04-06T02:38:01.114Z,80.40
2023-04-06T02:38:32.863Z,80.35
2023-04-06T02:39:04.598Z,80.23
2023-04-06T02:39:36.396Z,80.29
2023-04-06T02:40:08.780Z,80.41
2023-04-06T02:40:40.599Z,80.32
2023-04-06T02:41:12.269Z,80.30
2023-04-06T02:41:44.044Z,80.29
2023-04-06T02:42:16.642Z,80.45
2023-04-06T02:42:48.308Z,80.42
2023-04-06T02:43:20.803Z,80.18
2023-04-06T02:43:52.611Z,80.37
2023-04-06T02:44:24.376Z,81.07
2023-04-06T02:44:56.164Z,81.02
2023-04-06T02:45:27.817Z,81.16
2023-04-06T02:45:59.467Z,81.07
2023-04-06T02:46:31.213Z,81.51
2023-04-06T02:47:02.926Z,81.04
2023-04-06T02:47:35.155Z,81.14
2023-04-06T02:48:06.851Z,81.26
2023-04-06T02:48:38.578Z,81.22
2023-04-06T02:49:10.670Z,81.05
2023-04-06T02:49:42.511Z,80.63
2023-04-06T02:50:14.544Z,80.57
2023-04-06T02:50:46.165Z,81.44
2023-04-06T02:51:17.858Z,81.48
2023-04-06T02:51:49.595Z,80.93
2023-04-06T02:52:21.259Z,80.98
2023-04-06T02:52:54.187Z,81.25
2023-04-06T02:53:25.859Z,81.20
2023-04-06T02:53:57.675Z,81.31
2023-04-06T02:54:29.374Z,81.24
2023-04-06T02:55:01.064Z,81.05
2023-04-06T02:55:32.697Z,80.95
2023-04-06T02:56:04.451Z,80.70
2023-04-06T02:56:36.265Z,80.59
2023-04-06T02:57:09.203Z,80.81
2023-04-06T02:57:40.826Z,80.70
2023-04-06T02:58:12.818Z,80.99
2023-04-06T02:58:44.497Z,81.60
2023-04-06T02:59:16.231Z,81.96
2023-04-06T02:59:47.965Z,81.82
2023-04-06T03:00:20.366Z,82.11
2023-04-06T03:00:52.078Z,82.04
2023-04-06T03:01:23.919Z,82.02
2023-04-06T03:01:56.010Z,81.80
2023-04-06T03:02:27.733Z,82.20
2023-04-06T03:02:59.672Z,82.32
2023-04-06T03:03:31.854Z,82.44
2023-04-06T03:04:04.005Z,82.80
2023-04-06T03:04:35.673Z,83.09
2023-04-06T03:05:07.724Z,82.54
2023-04-06T03:05:39.452Z,82.29
2023-04-06T03:06:11.160Z,83.37
2023-04-06T03:06:42.874Z,83.10
2023-04-06T03:07:14.748Z,82.46
2023-04-06T03:07:46.471Z,82.21
2023-04-06T03:08:18.148Z,81.98
2023-04-06T03:08:49.793Z,82.41
2023-04-06T03:09:21.523Z,82.49
2023-04-06T03:09:53.176Z,83.02
2023-04-06T03:10:24.935Z,82.65
2023-04-06T03:10:56.583Z,82.17
2023-04-06T03:11:28.360Z,81.60
2023-04-06T03:12:00.045Z,81.19
2023-04-06T03:12:31.688Z,81.14
2023-04-06T03:13:03.361Z,81.41
2023-04-06T03:13:35.071Z,81.61
2023-04-06T03:14:06.892Z,81.57
2023-04-06T03:14:38.576Z,81.71
2023-04-06T03:15:11.689Z,81.55
2023-04-06T03:15:43.439Z,81.43
2023-04-06T03:16:15.191Z,81.53
2023-04-06T03:16:46.893Z,81.48
2023-04-06T03:17:18.518Z,81.39
2023-04-06T03:17:50.295Z,81.26
2023-04-06T03:18:27.022Z,81.23
2023-04-06T03:18:58.711Z,81.18
2023-04-06T03:19:30.440Z,81.22
2023-04-06T03:20:02.098Z,81.35
2023-04-06T03:20:33.878Z,81.61
2023-04-06T03:21:06.516Z,81.47
2023-04-06T03:21:38.228Z,81.43
2023-04-06T03:22:09.967Z,81.20
2023-04-06T03:22:41.578Z,81.33
2023-04-06T03:23:13.386Z,81.35
2023-04-06T03:23:45.087Z,81.69
2023-04-06T03:24:16.796Z,81.88
2023-04-06T03:24:48.471Z,82.42
2023-04-06T03:25:20.091Z,82.37
2023-04-06T03:25:51.887Z,82.71
2023-04-06T03:26:23.663Z,82.80
2023-04-06T03:26:56.361Z,82.44
2023-04-06T03:27:28.097Z,81.66
2023-04-06T03:27:59.854Z,81.27
2023-04-06T03:28:31.561Z,81.14
2023-04-06T03:29:03.245Z,81.10
2023-04-06T03:29:34.899Z,81.08
2023-04-06T03:30:07.586Z,81.30
2023-04-06T03:30:39.285Z,81.07
2023-04-06T03:31:11.257Z,81.03
2023-04-06T03:31:42.992Z,81.15
2023-04-06T03:32:14.663Z,81.05
2023-04-06T03:32:46.422Z,81.15
2023-04-06T03:33:18.074Z,81.56
2023-04-06T03:33:49.829Z,81.82
2023-04-06T03:34:21.728Z,81.95
2023-04-06T03:34:53.388Z,82.49
2023-04-06T03:35:25.703Z,82.28
2023-04-06T03:35:57.416Z,82.37
2023-04-06T03:36:29.148Z,82.17
2023-04-06T03:37:09.812Z,81.93
2023-04-06T03:37:42.299Z,81.87
2023-04-06T03:38:13.953Z,82.48
2023-04-06T03:38:45.816Z,82.23
2023-04-06T03:39:17.578Z,82.31
2023-04-06T03:39:49.296Z,82.00
2023-04-06T03:40:21.198Z,81.80
2023-04-06T03:40:52.849Z,81.91
2023-04-06T03:41:24.595Z,81.98
2023-04-06T03:41:56.448Z,81.64
2023-04-06T03:42:28.098Z,82.09
2023-04-06T03:43:00.536Z,81.96
2023-04-06T03:43:32.315Z,81.66
2023-04-06T03:44:04.024Z,81.45
2023-04-06T03:44:36.168Z,81.72
2023-04-06T03:45:08.511Z,81.98
2023-04-06T03:45:40.360Z,82.35
2023-04-06T03:46:12.147Z,82.27
2023-04-06T03:46:43.903Z,82.02
2023-04-06T03:47:15.707Z,81.96
2023-04-06T03:47:47.483Z,82.03
2023-04-06T03:48:19.355Z,82.04
2023-04-06T03:48:51.073Z,82.05
2023-04-06T03:49:22.860Z,82.20
2023-04-06T03:49:54.830Z,82.41
2023-04-06T03:50:27.138Z,81.91
2023-04-06T03:50:58.770Z,81.58
2023-04-06T03:51:30.570Z,81.59
2023-04-06T03:52:02.818Z,82.10
2023-04-06T03:52:35.463Z,82.38
2023-04-06T03:53:07.196Z,82.28
2023-04-06T03:53:38.942Z,82.14
2023-04-06T03:54:10.790Z,82.16
2023-04-06T03:54:42.616Z,82.41
2023-04-06T03:55:14.468Z,82.61
2023-04-06T03:55:46.165Z,82.96
2023-04-06T03:56:17.790Z,83.00
2023-04-06T03:56:49.460Z,83.00
2023-04-06T03:57:21.159Z,82.85
2023-04-06T03:57:52.964Z,83.11
2023-04-06T03:58:24.767Z,83.11
2023-04-06T03:58:56.734Z,82.80
2023-04-06T03:59:28.552Z,82.70
2023-04-06T04:00:00.813Z,82.52
2023-04-06T04:00:33.969Z,82.46
2023-04-06T04:01:05.977Z,82.49
2023-04-06T04:01:37.825Z,83.22
2023-04-06T04:02:09.570Z,84.20
2023-04-06T04:02:41.555Z,84.11
2023-04-06T04:03:13.349Z,83.89
2023-04-06T04:03:45.541Z,83.38
2023-04-06T04:04:17.343Z,83.14
2023-04-06T04:04:49.033Z,83.09
2023-04-06T04:05:20.799Z,83.41
2023-04-06T04:05:52.444Z,83.40
2023-04-06T04:06:24.304Z,83.02
2023-04-06T04:06:56.178Z,82.82
2023-04-06T04:07:27.952Z,82.59
2023-04-06T04:07:59.734Z,83.24
2023-04-06T04:08:31.496Z,83.41
2023-04-06T04:09:03.397Z,83.48
2023-04-06T04:09:35.056Z,83.38
2023-04-06T04:10:07.184Z,83.54
2023-04-06T04:10:38.968Z,83.34
2023-04-06T04:11:10.706Z,83.39
2023-04-06T04:11:42.479Z,83.56
2023-04-06T04:12:15.822Z,83.67
2023-04-06T04:12:47.470Z,83.51
2023-04-06T04:13:19.759Z,83.83
2023-04-06T04:13:51.455Z,83.99
2023-04-06T04:14:23.119Z,83.97
2023-04-06T04:14:54.815Z,83.63
2023-04-06T04:15:26.526Z,83.40
2023-04-06T04:15:58.424Z,83.24
2023-04-06T04:16:30.481Z,83.49
2023-04-06T04:17:02.140Z,84.28
2023-04-06T04:17:33.804Z,84.39
2023-04-06T04:18:05.593Z,84.36
2023-04-06T04:18:37.813Z,84.45
2023-04-06T04:19:09.881Z,84.66
2023-04-06T04:19:41.748Z,84.49
2023-04-06T04:20:14.089Z,84.30
2023-04-06T04:20:45.856Z,84.39
2023-04-06T04:21:17.505Z,84.37
2023-04-06T04:21:49.304Z,84.77
2023-04-06T04:22:20.975Z,85.16
2023-04-06T04:22:52.646Z,85.53
2023-04-06T04:23:24.326Z,85.56
2023-04-06T04:23:56.106Z,85.61
2023-04-06T04:24:27.770Z,85.35
2023-04-06T04:25:00.414Z,84.96
2023-04-06T04:25:32.068Z,84.45
2023-04-06T04:26:03.792Z,84.24
2023-04-06T04:26:35.479Z,83.59
2023-04-06T04:27:07.140Z,83.89
2023-04-06T04:27:38.807Z,84.07
2023-04-06T04:28:10.494Z,83.78
2023-04-06T04:28:42.157Z,83.89
2023-04-06T04:29:13.864Z,83.95
2023-04-06T04:29:45.578Z,84.04
2023-04-06T04:30:17.521Z,84.19
2023-04-06T04:30:49.132Z,83.78
2023-04-06T04:31:22.970Z,83.54
2023-04-06T04:31:54.942Z,83.68
2023-04-06T04:32:28.462Z,84.07
2023-04-06T04:33:00.184Z,84.23
2023-04-06T04:33:31.891Z,84.24
2023-04-06T04:34:03.633Z,84.06
2023-04-06T04:34:35.592Z,84.00
2023-04-06T04:35:07.661Z,83.78
2023-04-06T04:35:39.332Z,83.60
2023-04-06T04:36:11.296Z,83.38
2023-04-06T04:36:43.335Z,83.57
2023-04-06T04:37:15.070Z,83.67
2023-04-06T04:37:46.760Z,83.70
2023-04-06T04:38:19.022Z,83.97
2023-04-06T04:38:50.801Z,84.06
2023-04-06T04:39:22.436Z,83.69
2023-04-06T04:39:54.122Z,83.92
2023-04-06T04:40:25.918Z,84.53
2023-04-06T04:40:57.562Z,84.82
2023-04-06T04:41:29.308Z,84.89
2023-04-06T04:42:01.104Z,84.81
2023-04-06T04:42:32.978Z,84.68
2023-04-06T04:43:04.786Z,83.93
2023-04-06T04:43:36.519Z,83.58
2023-04-06T04:44:08.157Z,83.52
2023-04-06T04:44:39.948Z,83.40
2023-04-06T04:45:12.004Z,83.34
2023-04-06T04:45:43.721Z,82.84
2023-04-06T04:46:15.702Z,82.46
2023-04-06T04:46:47.357Z,82.36
2023-04-06T04:47:19.116Z,82.30
2023-04-06T04:47:50.925Z,82.65
2023-04-06T04:48:22.790Z,82.58
2023-04-06T04:48:54.571Z,82.68
2023-04-06T04:49:26.247Z,82.66
2023-04-06T04:49:58.016Z,82.49
2023-04-06T04:50:29.681Z,82.52
2023-04-06T04:51:01.893Z,82.36
2023-04-06T04:51:34.814Z,82.39
2023-04-06T04:52:06.554Z,83.08
2023-04-06T04:52:39.005Z,83.04
2023-04-06T04:53:10.689Z,83.11
2023-04-06T04:53:42.372Z,82.74
2023-04-06T04:54:13.986Z,82.27
2023-04-06T04:54:45.645Z,81.83
2023-04-06T04:55:18.531Z,81.82
2023-04-06T04:55:50.471Z,81.81
2023-04-06T04:56:22.140Z,81.77
2023-04-06T04:56:53.755Z,81.73
2023-04-06T04:57:25.494Z,81.77
2023-04-06T04:57:57.310Z,81.46
2023-04-06T04:58:28.990Z,81.45
2023-04-06T04:59:00.647Z,81.41
2023-04-06T04:59:32.466Z,81.55
2023-04-06T05:00:04.530Z,81.28
2023-04-06T05:00:36.260Z,81.90
2023-04-06T05:01:07.996Z,82.89
2023-04-06T05:01:51.722Z,83.35
2023-04-06T05:02:26.110Z,82.55
2023-04-06T05:02:58.012Z,82.04
2023-04-06T05:03:30.302Z,81.75
2023-04-06T05:04:02.038Z,81.57
2023-04-06T05:04:33.870Z,81.50
2023-04-06T05:05:06.288Z,82.01
2023-04-06T05:05:38.004Z,81.69
2023-04-06T05:06:10.939Z,81.01
2023-04-06T05:06:43.955Z,80.74
2023-04-06T05:07:16.555Z,80.50
2023-04-06T05:07:48.199Z,80.19
2023-04-06T05:08:19.850Z,79.98
2023-04-06T05:08:51.557Z,79.75
2023-04-06T05:09:23.188Z,79.93
2023-04-06T05:09:54.818Z,80.06
2023-04-06T05:10:26.466Z,80.04
2023-04-06T05:10:58.501Z,80.20
2023-04-06T05:11:30.193Z,80.05
2023-04-06T05:12:02.047Z,79.64
2023-04-06T05:12:33.750Z,79.65
2023-04-06T05:13:05.621Z,79.40
2023-04-06T05:13:37.317Z,79.21
2023-04-06T05:14:09.107Z,79.33
2023-04-06T05:14:41.491Z,79.64
2023-04-06T05:15:13.352Z,79.61
2023-04-06T05:15:45.117Z,79.52
2023-04-06T05:16:17.111Z,79.24
2023-04-06T05:16:48.815Z,79.09
2023-04-06T05:17:20.510Z,79.04
2023-04-06T05:17:52.417Z,79.01
2023-04-06T05:18:24.199Z,79.13
2023-04-06T05:18:57.885Z,78.89
2023-04-06T05:19:30.697Z,78.61
2023-04-06T05:20:03.251Z,78.67
2023-04-06T05:20:36.140Z,78.38
2023-04-06T05:21:07.909Z,78.09
2023-04-06T05:21:39.528Z,77.95
2023-04-06T05:22:11.211Z,78.07
2023-04-06T05:22:42.855Z,78.40
2023-04-06T05:23:14.495Z,78.25
2023-04-06T05:23:46.350Z,77.79
2023-04-06T05:24:17.996Z,77.46
2023-04-06T05:24:49.636Z,77.61
2023-04-06T05:25:21.312Z,77.72
2023-04-06T05:25:53.158Z,77.76
2023-04-06T05:26:25.497Z,77.90
2023-04-06T05:26:57.183Z,78.19
2023-04-06T05:27:28.992Z,78.14
2023-04-06T05:28:00.966Z,78.36
2023-04-06T05:28:33.551Z,78.69
2023-04-06T05:29:05.358Z,78.43
2023-04-06T05:29:37.043Z,78.23
2023-04-06T05:30:09.219Z,78.05
2023-04-06T05:30:41.225Z,77.77
2023-04-06T05:31:12.948Z,77.96
2023-04-06T05:31:44.690Z,77.97
2023-04-06T05:32:16.844Z,77.92
2023-04-06T05:32:49.031Z,78.11
2023-04-06T05:33:20.786Z,78.26
2023-04-06T05:33:52.421Z,78.44
2023-04-06T05:34:24.370Z,77.98
2023-04-06T05:34:57.129Z,77.71
2023-04-06T05:35:28.821Z,77.48
2023-04-06T05:36:02.185Z,77.50
2023-04-06T05:36:34.147Z,77.05
2023-04-06T05:37:06.044Z,76.98
2023-04-06T05:37:37.755Z,77.12
2023-04-06T05:38:11.397Z,77.00
2023-04-06T05:38:43.138Z,77.13
2023-04-06T05:39:14.892Z,76.76
2023-04-06T05:39:46.818Z,76.44
2023-04-06T05:40:18.630Z,76.55
2023-04-06T05:40:50.255Z,76.40
2023-04-06T05:41:22.006Z,76.53
2023-04-06T05:41:53.625Z,76.75
2023-04-06T05:42:25.250Z,76.96
2023-04-06T05:42:56.916Z,76.79
2023-04-06T05:43:28.650Z,76.69
2023-04-06T05:44:00.469Z,76.89
2023-04-06T05:44:32.280Z,77.21
2023-04-06T05:45:04.564Z,77.19
2023-04-06T05:45:36.418Z,77.03
2023-04-06T05:46:08.756Z,76.97
2023-04-06T05:46:41.026Z,77.27
2023-04-06T05:47:12.859Z,77.89
2023-04-06T05:47:45.250Z,77.52
2023-04-06T05:48:17.106Z,77.28
2023-04-06T05:48:48.873Z,76.97
2023-04-06T05:49:20.538Z,76.61
2023-04-06T05:49:52.330Z,76.65
2023-04-06T05:50:24.088Z,76.72
2023-04-06T05:50:55.918Z,76.67
2023-04-06T05:51:28.307Z,76.79
2023-04-06T05:51:59.951Z,77.02
2023-04-06T05:52:31.600Z,77.14
2023-04-06T05:53:03.292Z,76.64
2023-04-06T05:53:34.937Z,76.59
2023-04-06T05:54:06.620Z,76.67
2023-04-06T05:54:38.391Z,76.67
2023-04-06T05:55:11.692Z,76.70
2023-04-06T05:55:43.380Z,76.75
2023-04-06T05:56:15.077Z,76.73
2023-04-06T05:56:46.758Z,76.36
2023-04-06T05:57:18.686Z,76.34
2023-04-06T05:57:50.344Z,76.17
2023-04-06T05:58:21.994Z,76.08
2023-04-06T05:58:53.864Z,75.99
2023-04-06T05:59:26.001Z,76.09
2023-04-06T05:59:57.641Z,76.09
2023-04-06T06:00:29.360Z,76.04
2023-04-06T06:01:01.939Z,75.81
2023-04-06T06:01:35.608Z,75.48
2023-04-06T06:02:07.348Z,75.03
2023-04-06T06:02:40.651Z,74.36
2023-04-06T06:03:13.709Z,74.21
2023-04-06T06:03:45.664Z,74.79
2023-04-06T06:04:17.374Z,74.27
2023-04-06T06:04:49.504Z,74.11
2023-04-06T06:05:21.290Z,74.10
2023-04-06T06:05:52.974Z,73.95
2023-04-06T06:06:24.641Z,73.42
2023-04-06T06:06:56.412Z,73.33
2023-04-06T06:07:28.076Z,73.38
2023-04-06T06:07:59.703Z,73.37
2023-04-06T06:08:31.709Z,72.89
2023-04-06T06:09:04.569Z,73.08
2023-04-06T06:09:36.407Z,73.13
2023-04-06T06:10:09.008Z,72.79
2023-04-06T06:10:41.529Z,72.82
2023-04-06T06:11:13.200Z,73.02
2023-04-06T06:11:44.987Z,73.14
2023-04-06T06:12:16.710Z,73.78
2023-04-06T06:12:48.382Z,73.71
2023-04-06T06:13:20.120Z,73.70
2023-04-06T06:13:51.738Z,73.75
2023-04-06T06:14:23.764Z,74.62
2023-04-06T06:14:56.453Z,74.75
2023-04-06T06:15:28.560Z,74.46
2023-04-06T06:16:00.336Z,73.89
2023-04-06T06:16:32.145Z,73.10
2023-04-06T06:17:03.927Z,73.13
2023-04-06T06:17:37.240Z,73.12
2023-04-06T06:18:10.846Z,73.14
2023-04-06T06:18:42.723Z,72.96
2023-04-06T06:19:14.470Z,72.72
2023-04-06T06:19:46.349Z,72.28
2023-04-06T06:20:18.292Z,72.84
2023-04-06T06:20:50.057Z,72.84
2023-04-06T06:21:21.735Z,73.40
2023-04-06T06:21:53.486Z,73.71
2023-04-06T06:22:25.214Z,73.79
2023-04-06T06:22:57.157Z,73.87
2023-04-06T06:23:28.822Z,74.36
2023-04-06T06:24:01.094Z,74.43
2023-04-06T06:24:32.761Z,74.42
2023-04-06T06:25:04.727Z,74.05
2023-04-06T06:25:36.408Z,74.04
2023-04-06T06:26:08.066Z,74.31
2023-04-06T06:26:40.962Z,74.25
2023-04-06T06:27:12.674Z,73.44
2023-04-06T06:27:44.428Z,73.25
2023-04-06T06:28:16.146Z,73.30
2023-04-06T06:28:47.794Z,72.90
2023-04-06T06:29:19.573Z,72.73
2023-04-06T06:29:51.302Z,73.23
2023-04-06T06:30:23.481Z,73.38
2023-04-06T06:30:55.353Z,72.77
2023-04-06T06:31:27.260Z,72.54
2023-04-06T06:31:59.143Z,72.50
2023-04-06T06:32:30.910Z,72.49
2023-04-06T06:33:02.852Z,72.25
2023-04-06T06:33:34.676Z,71.93
2023-04-06T06:34:06.508Z,71.94
2023-04-06T06:34:38.215Z,71.72
2023-04-06T06:35:09.980Z,71.62
2023-04-06T06:35:41.696Z,71.08
2023-04-06T06:36:13.668Z,71.13
2023-04-06T06:36:47.854Z,70.83
2023-04-06T06:37:20.354Z,69.74
2023-04-06T06:37:52.001Z,69.55
2023-04-06T06:38:24.037Z,69.61
2023-04-06T06:38:55.962Z,69.25
2023-04-06T06:39:27.760Z,69.51
2023-04-06T06:39:59.527Z,69.69
2023-04-06T06:40:31.190Z,68.73
2023-04-06T06:41:02.860Z,68.51
2023-04-06T06:41:34.613Z,68.71
2023-04-06T06:42:06.834Z,68.51
2023-04-06T06:42:38.573Z,68.94
2023-04-06T06:43:10.382Z,68.16
2023-04-06T06:43:42.035Z,67.76
2023-04-06T06:44:13.782Z,67.05
2023-04-06T06:44:45.436Z,66.61
2023-04-06T06:45:17.441Z,67.31
2023-04-06T06:45:49.440Z,68.13
2023-04-06T06:46:21.870Z,67.58
2023-04-06T06:46:53.594Z,67.25
2023-04-06T06:47:26.699Z,67.32
2023-04-06T06:47:58.521Z,67.43
2023-04-06T06:48:30.583Z,66.86
2023-04-06T06:49:02.281Z,66.31
2023-04-06T06:49:33.911Z,66.85
2023-04-06T06:50:06.340Z,67.27
2023-04-06T06:50:37.968Z,67.35
2023-04-06T06:51:10.682Z,67.46
2023-04-06T06:51:42.397Z,67.52
2023-04-06T06:52:14.316Z,67.24